Aviation Digital Data Service (ADDS)

Output produced by TAFs form (0024 UTC 27 May 2017)
found at http://www.aviationweather.gov/adds/tafs/
 
METAR text: RJOR 270000Z 27016KT 9999 FEW020 SCT040 19/11 Q1011
Conditions at: RJOR (TOTTORI AIRPORT , JP) observed 0000 UTC 27 May 2017
Temperature: 19.0°C (66°F)
Dewpoint: 11.0°C (52°F) [RH = 60%]
Pressure (altimeter): 29.85 inches Hg (1011.0 mb)
Winds: from the W (270 degrees) at 18 MPH (16 knots; 8.3 m/s)
Visibility: 6 or more miles (10+ km)
Ceiling: at least 12,000 feet AGL
Clouds: few clouds at 2000 feet AGL
scattered clouds at 4000 feet AGL
Weather: no significant weather observed at this time